sensor_id;sensor_type;location;lat;lon;timestamp;pressure;altitude;pressure_sealevel;temperature;humidity
65131;BME280;51709;54.912;8.316;2022-10-16T00:01:46;100493.72;;;13.53;81.30
65131;BME280;51709;54.912;8.316;2022-10-16T00:07:07;100497.34;;;13.49;81.24
65131;BME280;51709;54.912;8.316;2022-10-16T00:12:27;100482.06;;;13.44;81.47
65131;BME280;51709;54.912;8.316;2022-10-16T00:17:48;100501.72;;;13.47;81.52
65131;BME280;51709;54.912;8.316;2022-10-16T00:23:08;100467.41;;;13.45;81.96
65131;BME280;51709;54.912;8.316;2022-10-16T00:28:31;100487.06;;;13.47;81.72
65131;BME280;51709;54.912;8.316;2022-10-16T00:33:52;100473.09;;;13.53;81.79
65131;BME280;51709;54.912;8.316;2022-10-16T00:39:13;100482.41;;;13.57;81.75
65131;BME280;51709;54.912;8.316;2022-10-16T00:50:13;100477.69;;;13.46;82.14
65131;BME280;51709;54.912;8.316;2022-10-16T00:55:36;100479.34;;;13.47;81.94
65131;BME280;51709;54.912;8.316;2022-10-16T01:01:02;100485.28;;;13.49;81.99
65131;BME280;51709;54.912;8.316;2022-10-16T01:06:36;100484.44;;;13.49;82.07
65131;BME280;51709;54.912;8.316;2022-10-16T01:12:18;100470.66;;;13.50;82.09
65131;BME280;51709;54.912;8.316;2022-10-16T01:17:51;100476.53;;;13.53;82.09
65131;BME280;51709;54.912;8.316;2022-10-16T01:34:34;100473.66;;;13.61;81.88
65131;BME280;51709;54.912;8.316;2022-10-16T01:39:59;100472.56;;;13.67;81.93
65131;BME280;51709;54.912;8.316;2022-10-16T01:45:21;100473.41;;;13.67;81.80
65131;BME280;51709;54.912;8.316;2022-10-16T01:50:44;100478.44;;;13.70;81.97
65131;BME280;51709;54.912;8.316;2022-10-16T01:56:08;100483.50;;;13.74;81.77
65131;BME280;51709;54.912;8.316;2022-10-16T02:01:33;100490.00;;;13.82;81.46
65131;BME280;51709;54.912;8.316;2022-10-16T02:06:55;100489.75;;;13.89;81.24
65131;BME280;51709;54.912;8.316;2022-10-16T02:12:28;100488.28;;;13.83;81.52
65131;BME280;51709;54.912;8.316;2022-10-16T02:17:49;100497.81;;;13.81;81.63
65131;BME280;51709;54.912;8.316;2022-10-16T02:23:13;100486.19;;;13.70;81.93
65131;BME280;51709;54.912;8.316;2022-10-16T02:28:48;100478.66;;;13.64;82.22
65131;BME280;51709;54.912;8.316;2022-10-16T02:34:13;100470.91;;;13.66;82.04
65131;BME280;51709;54.912;8.316;2022-10-16T02:39:36;100459.97;;;13.59;82.35
65131;BME280;51709;54.912;8.316;2022-10-16T02:44:59;100476.59;;;13.52;82.55
65131;BME280;51709;54.912;8.316;2022-10-16T02:50:20;100468.28;;;13.45;82.53
65131;BME280;51709;54.912;8.316;2022-10-16T02:55:41;100487.94;;;13.48;82.49
65131;BME280;51709;54.912;8.316;2022-10-16T03:01:02;100476.47;;;13.55;82.10
65131;BME280;51709;54.912;8.316;2022-10-16T03:06:23;100479.72;;;13.60;81.93
65131;BME280;51709;54.912;8.316;2022-10-16T03:11:44;100486.28;;;13.67;81.41
65131;BME280;51709;54.912;8.316;2022-10-16T03:17:04;100494.09;;;13.66;81.75
65131;BME280;51709;54.912;8.316;2022-10-16T03:22:25;100491.63;;;13.63;81.73
65131;BME280;51709;54.912;8.316;2022-10-16T03:27:46;100498.38;;;13.67;81.38
65131;BME280;51709;54.912;8.316;2022-10-16T03:33:06;100491.41;;;13.69;81.36
65131;BME280;51709;54.912;8.316;2022-10-16T03:38:27;100504.31;;;13.69;81.45
65131;BME280;51709;54.912;8.316;2022-10-16T03:43:48;100491.72;;;13.61;81.50
65131;BME280;51709;54.912;8.316;2022-10-16T03:49:11;100491.03;;;13.56;81.77
65131;BME280;51709;54.912;8.316;2022-10-16T03:54:32;100477.44;;;13.52;81.80
65131;BME280;51709;54.912;8.316;2022-10-16T03:59:53;100490.50;;;13.48;81.96
65131;BME280;51709;54.912;8.316;2022-10-16T04:05:13;100472.56;;;13.45;81.94
65131;BME280;51709;54.912;8.316;2022-10-16T04:10:34;100491.50;;;13.44;82.24
65131;BME280;51709;54.912;8.316;2022-10-16T04:15:55;100496.66;;;13.44;82.04
65131;BME280;51709;54.912;8.316;2022-10-16T04:21:15;100495.78;;;13.45;81.85
65131;BME280;51709;54.912;8.316;2022-10-16T04:26:36;100506.88;;;13.47;81.91
65131;BME280;51709;54.912;8.316;2022-10-16T04:31:56;100513.00;;;13.44;81.89
65131;BME280;51709;54.912;8.316;2022-10-16T04:37:17;100517.97;;;13.49;81.68
65131;BME280;51709;54.912;8.316;2022-10-16T04:42:38;100518.78;;;13.49;81.70
65131;BME280;51709;54.912;8.316;2022-10-16T04:47:59;100531.50;;;13.54;81.75
65131;BME280;51709;54.912;8.316;2022-10-16T04:53:20;100543.47;;;13.56;81.59
65131;BME280;51709;54.912;8.316;2022-10-16T04:58:40;100557.19;;;13.57;81.45
65131;BME280;51709;54.912;8.316;2022-10-16T05:04:01;100546.22;;;13.52;81.53
65131;BME280;51709;54.912;8.316;2022-10-16T05:09:22;100556.69;;;13.47;81.70
65131;BME280;51709;54.912;8.316;2022-10-16T05:14:42;100556.81;;;13.44;81.59
65131;BME280;51709;54.912;8.316;2022-10-16T05:27:58;100566.41;;;13.40;81.04
65131;BME280;51709;54.912;8.316;2022-10-16T05:33:20;100567.22;;;13.41;81.16
65131;BME280;51709;54.912;8.316;2022-10-16T05:38:41;100583.53;;;13.41;81.06
65131;BME280;51709;54.912;8.316;2022-10-16T05:44:05;100574.16;;;13.39;81.09
65131;BME280;51709;54.912;8.316;2022-10-16T05:49:26;100569.94;;;13.36;81.39
65131;BME280;51709;54.912;8.316;2022-10-16T05:54:47;100587.19;;;13.34;81.16
65131;BME280;51709;54.912;8.316;2022-10-16T06:00:08;100580.59;;;13.27;81.28
65131;BME280;51709;54.912;8.316;2022-10-16T06:05:34;100598.69;;;13.25;81.33
65131;BME280;51709;54.912;8.316;2022-10-16T06:11:02;100594.50;;;13.23;81.36
65131;BME280;51709;54.912;8.316;2022-10-16T06:16:24;100608.19;;;13.23;81.31
65131;BME280;51709;54.912;8.316;2022-10-16T06:21:45;100586.75;;;13.23;81.31
65131;BME280;51709;54.912;8.316;2022-10-16T06:27:06;100583.22;;;13.25;81.42
65131;BME280;51709;54.912;8.316;2022-10-16T06:32:28;100595.31;;;13.23;81.46
65131;BME280;51709;54.912;8.316;2022-10-16T06:37:48;100622.72;;;13.26;81.09
65131;BME280;51709;54.912;8.316;2022-10-16T06:43:09;100608.94;;;13.27;80.94
65131;BME280;51709;54.912;8.316;2022-10-16T06:48:29;100608.88;;;13.29;80.97
65131;BME280;51709;54.912;8.316;2022-10-16T06:53:54;100609.69;;;13.31;80.84
65131;BME280;51709;54.912;8.316;2022-10-16T06:59:24;100617.16;;;13.37;80.53
65131;BME280;51709;54.912;8.316;2022-10-16T07:04:46;100620.38;;;13.45;80.46
65131;BME280;51709;54.912;8.316;2022-10-16T07:10:07;100598.59;;;13.52;80.41
65131;BME280;51709;54.912;8.316;2022-10-16T07:15:27;100616.25;;;13.63;80.12
65131;BME280;51709;54.912;8.316;2022-10-16T07:20:49;100641.69;;;13.73;79.68
65131;BME280;51709;54.912;8.316;2022-10-16T07:26:09;100661.16;;;13.81;79.66
65131;BME280;51709;54.912;8.316;2022-10-16T07:31:30;100648.91;;;13.86;79.58
65131;BME280;51709;54.912;8.316;2022-10-16T07:36:51;100655.75;;;13.87;79.66
65131;BME280;51709;54.912;8.316;2022-10-16T07:42:11;100676.22;;;13.92;79.62
65131;BME280;51709;54.912;8.316;2022-10-16T07:47:32;100664.09;;;13.94;79.49
65131;BME280;51709;54.912;8.316;2022-10-16T07:52:52;100675.38;;;14.14;79.06
65131;BME280;51709;54.912;8.316;2022-10-16T07:58:13;100678.22;;;14.30;78.84
65131;BME280;51709;54.912;8.316;2022-10-16T08:03:33;100688.19;;;14.39;78.37
65131;BME280;51709;54.912;8.316;2022-10-16T08:08:55;100684.66;;;14.42;78.30
65131;BME280;51709;54.912;8.316;2022-10-16T08:14:16;100707.59;;;14.49;78.37
65131;BME280;51709;54.912;8.316;2022-10-16T08:19:37;100700.38;;;14.58;78.14
65131;BME280;51709;54.912;8.316;2022-10-16T08:24:58;100708.94;;;14.58;77.81
65131;BME280;51709;54.912;8.316;2022-10-16T08:30:21;100706.31;;;14.60;77.63
65131;BME280;51709;54.912;8.316;2022-10-16T08:35:42;100700.88;;;14.68;77.53
65131;BME280;51709;54.912;8.316;2022-10-16T08:47:13;100717.16;;;14.70;77.36
65131;BME280;51709;54.912;8.316;2022-10-16T08:52:41;100732.09;;;14.84;77.05
65131;BME280;51709;54.912;8.316;2022-10-16T08:58:16;100741.13;;;14.94;76.54
65131;BME280;51709;54.912;8.316;2022-10-16T09:21:15;100758.72;;;15.48;74.99
65131;BME280;51709;54.912;8.316;2022-10-16T09:26:36;100776.28;;;15.81;74.42
65131;BME280;51709;54.912;8.316;2022-10-16T09:32:17;100773.53;;;15.84;74.41
65131;BME280;51709;54.912;8.316;2022-10-16T09:37:38;100776.97;;;16.05;73.77
65131;BME280;51709;54.912;8.316;2022-10-16T09:43:19;100786.69;;;16.19;72.89
65131;BME280;51709;54.912;8.316;2022-10-16T09:48:44;100796.94;;;16.59;72.51
65131;BME280;51709;54.912;8.316;2022-10-16T09:59:28;100802.28;;;16.75;71.50
65131;BME280;51709;54.912;8.316;2022-10-16T10:04:53;100817.19;;;15.93;73.60
65131;BME280;51709;54.912;8.316;2022-10-16T10:10:26;100824.03;;;15.32;75.51
65131;BME280;51709;54.912;8.316;2022-10-16T10:15:47;100799.94;;;18.09;67.53
65131;BME280;51709;54.912;8.316;2022-10-16T10:21:14;100867.56;;;20.39;61.32
65131;BME280;51709;54.912;8.316;2022-10-16T10:26:37;100859.69;;;18.41;66.46
65131;BME280;51709;54.912;8.316;2022-10-16T10:32:20;100869.69;;;18.65;66.79
65131;BME280;51709;54.912;8.316;2022-10-16T10:37:51;100868.63;;;17.86;68.36
65131;BME280;51709;54.912;8.316;2022-10-16T10:49:22;100901.22;;;17.92;59.88
65131;BME280;51709;54.912;8.316;2022-10-16T11:06:33;100933.66;;;16.73;59.01
65131;BME280;51709;54.912;8.316;2022-10-16T11:12:00;100988.16;;;18.02;54.57
65131;BME280;51709;54.912;8.316;2022-10-16T11:17:30;100967.78;;;18.95;53.51
65131;BME280;51709;54.912;8.316;2022-10-16T11:23:14;100971.69;;;19.97;50.36
65131;BME280;51709;54.912;8.316;2022-10-16T11:28:44;100980.28;;;20.28;50.17
65131;BME280;51709;54.912;8.316;2022-10-16T11:34:16;100981.84;;;20.74;48.96
65131;BME280;51709;54.912;8.316;2022-10-16T11:39:38;100998.28;;;21.18;48.52
65131;BME280;51709;54.912;8.316;2022-10-16T11:45:03;101001.63;;;21.20;47.08
65131;BME280;51709;54.912;8.316;2022-10-16T11:50:54;101010.59;;;20.14;46.51
65131;BME280;51709;54.912;8.316;2022-10-16T11:56:19;101040.78;;;19.56;47.18
65131;BME280;51709;54.912;8.316;2022-10-16T12:01:53;101032.72;;;19.29;46.36
65131;BME280;51709;54.912;8.316;2022-10-16T12:07:20;101046.50;;;18.30;47.15
65131;BME280;51709;54.912;8.316;2022-10-16T12:12:42;101050.72;;;17.78;48.43
65131;BME280;51709;54.912;8.316;2022-10-16T12:18:20;101072.09;;;18.02;47.78
65131;BME280;51709;54.912;8.316;2022-10-16T12:23:51;101102.00;;;19.31;45.93
65131;BME280;51709;54.912;8.316;2022-10-16T12:29:33;101081.38;;;20.07;45.46
65131;BME280;51709;54.912;8.316;2022-10-16T12:34:54;101116.09;;;20.83;44.84
65131;BME280;51709;54.912;8.316;2022-10-16T12:45:42;101111.91;;;22.73;40.37
65131;BME280;51709;54.912;8.316;2022-10-16T13:14:27;101179.19;;;20.59;42.03
65131;BME280;51709;54.912;8.316;2022-10-16T13:25:52;101178.34;;;19.14;44.96
65131;BME280;51709;54.912;8.316;2022-10-16T13:31:20;101194.44;;;18.15;47.08
65131;BME280;51709;54.912;8.316;2022-10-16T13:36:48;101202.28;;;16.74;51.17
65131;BME280;51709;54.912;8.316;2022-10-16T13:42:22;101226.09;;;15.95;53.10
65131;BME280;51709;54.912;8.316;2022-10-16T13:47:47;101233.44;;;15.58;54.16
65131;BME280;51709;54.912;8.316;2022-10-16T13:53:14;101234.38;;;15.30;55.23
65131;BME280;51709;54.912;8.316;2022-10-16T13:58:35;101254.22;;;15.04;54.97
65131;BME280;51709;54.912;8.316;2022-10-16T14:04:02;101265.09;;;14.87;55.12
65131;BME280;51709;54.912;8.316;2022-10-16T14:09:29;101248.28;;;14.74;55.25
65131;BME280;51709;54.912;8.316;2022-10-16T14:14:52;101282.78;;;14.73;55.61
65131;BME280;51709;54.912;8.316;2022-10-16T14:20:15;101288.28;;;14.60;57.08
65131;BME280;51709;54.912;8.316;2022-10-16T14:25:36;101303.75;;;14.62;56.73
65131;BME280;51709;54.912;8.316;2022-10-16T14:30:59;101302.94;;;14.60;57.11
65131;BME280;51709;54.912;8.316;2022-10-16T14:36:20;101315.91;;;14.58;57.71
65131;BME280;51709;54.912;8.316;2022-10-16T14:41:45;101316.97;;;14.51;57.39
65131;BME280;51709;54.912;8.316;2022-10-16T14:47:09;101340.31;;;14.48;57.33
65131;BME280;51709;54.912;8.316;2022-10-16T14:52:33;101343.97;;;14.41;57.13
65131;BME280;51709;54.912;8.316;2022-10-16T14:57:54;101343.34;;;14.32;57.07
65131;BME280;51709;54.912;8.316;2022-10-16T15:03:20;101363.34;;;14.26;57.39
65131;BME280;51709;54.912;8.316;2022-10-16T15:08:40;101350.59;;;14.20;57.71
65131;BME280;51709;54.912;8.316;2022-10-16T15:14:01;101367.75;;;14.22;58.67
65131;BME280;51709;54.912;8.316;2022-10-16T15:19:21;101363.50;;;14.20;58.76
65131;BME280;51709;54.912;8.316;2022-10-16T15:24:42;101374.06;;;14.10;59.26
65131;BME280;51709;54.912;8.316;2022-10-16T15:30:03;101401.78;;;14.03;59.49
65131;BME280;51709;54.912;8.316;2022-10-16T15:35:24;101404.28;;;14.07;59.42
65131;BME280;51709;54.912;8.316;2022-10-16T15:40:46;101401.91;;;13.99;58.93
65131;BME280;51709;54.912;8.316;2022-10-16T15:46:11;101414.25;;;13.87;58.67
65131;BME280;51709;54.912;8.316;2022-10-16T15:51:31;101421.22;;;13.84;59.01
65131;BME280;51709;54.912;8.316;2022-10-16T15:56:53;101435.88;;;13.82;59.99
65131;BME280;51709;54.912;8.316;2022-10-16T16:02:14;101428.97;;;13.82;60.29
65131;BME280;51709;54.912;8.316;2022-10-16T16:07:35;101441.16;;;13.77;60.25
65131;BME280;51709;54.912;8.316;2022-10-16T16:12:57;101456.78;;;13.71;59.86
65131;BME280;51709;54.912;8.316;2022-10-16T16:18:17;101478.41;;;13.65;59.99
65131;BME280;51709;54.912;8.316;2022-10-16T16:23:39;101485.44;;;13.60;60.56
65131;BME280;51709;54.912;8.316;2022-10-16T16:29:00;101496.69;;;13.56;60.59
65131;BME280;51709;54.912;8.316;2022-10-16T16:34:20;101501.13;;;13.51;60.03
65131;BME280;51709;54.912;8.316;2022-10-16T16:39:41;101524.38;;;13.48;59.64
65131;BME280;51709;54.912;8.316;2022-10-16T16:45:01;101529.59;;;13.46;59.80
65131;BME280;51709;54.912;8.316;2022-10-16T16:50:22;101532.28;;;13.40;60.29
65131;BME280;51709;54.912;8.316;2022-10-16T16:55:43;101530.56;;;13.39;60.46
65131;BME280;51709;54.912;8.316;2022-10-16T17:01:04;101552.16;;;13.33;61.14
65131;BME280;51709;54.912;8.316;2022-10-16T17:06:41;101548.75;;;13.31;61.53
65131;BME280;51709;54.912;8.316;2022-10-16T17:12:03;101571.13;;;13.31;61.22
65131;BME280;51709;54.912;8.316;2022-10-16T17:17:23;101566.88;;;13.28;61.13
65131;BME280;51709;54.912;8.316;2022-10-16T17:22:44;101568.59;;;13.28;60.95
65131;BME280;51709;54.912;8.316;2022-10-16T17:28:06;101590.91;;;13.29;60.54
65131;BME280;51709;54.912;8.316;2022-10-16T17:33:27;101596.91;;;13.31;60.21
65131;BME280;51709;54.912;8.316;2022-10-16T17:38:48;101610.66;;;13.30;60.51
65131;BME280;51709;54.912;8.316;2022-10-16T17:44:09;101629.50;;;13.33;60.49
65131;BME280;51709;54.912;8.316;2022-10-16T17:49:32;101632.94;;;13.32;60.46
65131;BME280;51709;54.912;8.316;2022-10-16T17:54:52;101652.75;;;13.32;60.63
65131;BME280;51709;54.912;8.316;2022-10-16T18:00:14;101651.09;;;13.28;61.06
65131;BME280;51709;54.912;8.316;2022-10-16T18:05:37;101671.75;;;13.24;61.26
65131;BME280;51709;54.912;8.316;2022-10-16T18:10:57;101674.34;;;13.26;61.78
65131;BME280;51709;54.912;8.316;2022-10-16T18:16:18;101682.06;;;13.24;61.89
65131;BME280;51709;54.912;8.316;2022-10-16T18:21:39;101704.44;;;13.24;62.13
65131;BME280;51709;54.912;8.316;2022-10-16T18:27:00;101696.75;;;13.22;62.32
65131;BME280;51709;54.912;8.316;2022-10-16T18:32:21;101698.44;;;13.22;62.72
65131;BME280;51709;54.912;8.316;2022-10-16T18:37:41;101711.34;;;13.22;62.50
65131;BME280;51709;54.912;8.316;2022-10-16T18:43:02;101713.09;;;13.20;62.74
65131;BME280;51709;54.912;8.316;2022-10-16T18:48:23;101738.06;;;13.16;62.68
65131;BME280;51709;54.912;8.316;2022-10-16T18:53:45;101722.56;;;13.18;62.40
65131;BME280;51709;54.912;8.316;2022-10-16T18:59:07;101730.31;;;13.18;62.57
65131;BME280;51709;54.912;8.316;2022-10-16T19:04:27;101740.66;;;13.16;62.86
65131;BME280;51709;54.912;8.316;2022-10-16T19:09:48;101737.28;;;13.13;63.18
65131;BME280;51709;54.912;8.316;2022-10-16T19:15:09;101752.78;;;13.11;63.22
65131;BME280;51709;54.912;8.316;2022-10-16T19:20:30;101759.66;;;13.10;63.05
65131;BME280;51709;54.912;8.316;2022-10-16T19:25:51;101760.53;;;13.11;63.30
65131;BME280;51709;54.912;8.316;2022-10-16T19:31:15;101763.94;;;13.12;63.51
65131;BME280;51709;54.912;8.316;2022-10-16T19:36:37;101765.69;;;13.09;63.75
65131;BME280;51709;54.912;8.316;2022-10-16T19:41:58;101776.03;;;13.08;64.01
65131;BME280;51709;54.912;8.316;2022-10-16T19:47:19;101772.63;;;13.06;64.16
65131;BME280;51709;54.912;8.316;2022-10-16T19:52:42;101785.50;;;13.06;64.05
65131;BME280;51709;54.912;8.316;2022-10-16T19:58:03;101793.22;;;13.06;64.13
65131;BME280;51709;54.912;8.316;2022-10-16T20:03:23;101796.66;;;13.06;64.29
65131;BME280;51709;54.912;8.316;2022-10-16T20:08:45;101801.84;;;13.05;64.58
65131;BME280;51709;54.912;8.316;2022-10-16T20:14:07;101793.31;;;13.01;64.82
65131;BME280;51709;54.912;8.316;2022-10-16T20:19:28;101788.16;;;13.01;64.66
65131;BME280;51709;54.912;8.316;2022-10-16T20:24:49;101795.88;;;13.01;64.70
65131;BME280;51709;54.912;8.316;2022-10-16T20:30:10;101807.03;;;13.02;64.88
65131;BME280;51709;54.912;8.316;2022-10-16T20:35:35;101799.31;;;13.02;65.03
65131;BME280;51709;54.912;8.316;2022-10-16T20:41:02;101797.59;;;13.01;65.19
65131;BME280;51709;54.912;8.316;2022-10-16T20:46:25;101803.63;;;13.01;65.36
65131;BME280;51709;54.912;8.316;2022-10-16T20:51:46;101808.72;;;13.04;64.68
65131;BME280;51709;54.912;8.316;2022-10-16T20:57:09;101815.56;;;13.07;64.53
65131;BME280;51709;54.912;8.316;2022-10-16T21:02:30;101808.69;;;13.06;64.38
65131;BME280;51709;54.912;8.316;2022-10-16T21:07:50;101829.34;;;13.04;64.24
65131;BME280;51709;54.912;8.316;2022-10-16T21:13:11;101828.44;;;13.07;63.91
65131;BME280;51709;54.912;8.316;2022-10-16T21:18:32;101830.16;;;13.06;63.95
65131;BME280;51709;54.912;8.316;2022-10-16T21:23:54;101822.50;;;13.02;63.98
65131;BME280;51709;54.912;8.316;2022-10-16T21:29:15;101826.00;;;12.98;64.56
65131;BME280;51709;54.912;8.316;2022-10-16T21:34:36;101836.31;;;12.96;64.50
65131;BME280;51709;54.912;8.316;2022-10-16T21:39:57;101827.75;;;12.94;64.53
65131;BME280;51709;54.912;8.316;2022-10-16T21:45:17;101839.88;;;12.89;64.86
65131;BME280;51709;54.912;8.316;2022-10-16T21:50:38;101849.41;;;12.82;65.32
65131;BME280;51709;54.912;8.316;2022-10-16T21:55:58;101858.13;;;12.73;65.66
65131;BME280;51709;54.912;8.316;2022-10-16T22:01:21;101854.00;;;12.60;66.09
65131;BME280;51709;54.912;8.316;2022-10-16T22:06:43;101857.59;;;12.48;66.43
65131;BME280;51709;54.912;8.316;2022-10-16T22:12:03;101868.13;;;12.28;66.86
65131;BME280;51709;54.912;8.316;2022-10-16T22:17:24;101861.50;;;12.07;67.45
65131;BME280;51709;54.912;8.316;2022-10-16T22:22:45;101865.06;;;11.92;67.78
65131;BME280;51709;54.912;8.316;2022-10-16T22:28:07;101866.88;;;11.80;68.00
65131;BME280;51709;54.912;8.316;2022-10-16T22:33:28;101866.91;;;11.76;68.11
65131;BME280;51709;54.912;8.316;2022-10-16T22:38:49;101865.28;;;11.68;68.19
65131;BME280;51709;54.912;8.316;2022-10-16T22:44:11;101849.84;;;11.67;68.25
65131;BME280;51709;54.912;8.316;2022-10-16T22:49:31;101856.75;;;11.63;68.31
65131;BME280;51709;54.912;8.316;2022-10-16T22:54:56;101855.09;;;11.54;68.51
65131;BME280;51709;54.912;8.316;2022-10-16T23:00:19;101876.59;;;11.50;68.54
65131;BME280;51709;54.912;8.316;2022-10-16T23:05:40;101878.41;;;11.34;68.86
65131;BME280;51709;54.912;8.316;2022-10-16T23:11:06;101872.56;;;11.15;69.08
65131;BME280;51709;54.912;8.316;2022-10-16T23:16:28;101871.75;;;11.02;69.46
65131;BME280;51709;54.912;8.316;2022-10-16T23:21:49;101879.56;;;10.91;69.54
65131;BME280;51709;54.912;8.316;2022-10-16T23:27:11;101877.06;;;10.79;69.64
65131;BME280;51709;54.912;8.316;2022-10-16T23:32:32;101874.53;;;10.67;70.00
65131;BME280;51709;54.912;8.316;2022-10-16T23:37:53;101880.53;;;10.59;69.96
65131;BME280;51709;54.912;8.316;2022-10-16T23:43:13;101884.00;;;10.52;69.92
65131;BME280;51709;54.912;8.316;2022-10-16T23:48:34;101874.63;;;10.46;70.10
65131;BME280;51709;54.912;8.316;2022-10-16T23:53:57;101878.06;;;10.41;70.18
65131;BME280;51709;54.912;8.316;2022-10-16T23:59:18;101877.22;;;10.39;70.29
